Time;durP1;ratioP1;P1;durP2;ratioP2;P2;SDS_P1;SDS_P2;PMS_P1;PMS_P2;Temp;Humidity;BMP_temperature;BMP_pressure;BME280_temperature;BME280_humidity;BME280_pressure;Samples;Min_cycle;Max_cycle;Signal;HPM_P1;HPM_P2
2022/10/09 00:00:43;;;;;;;4.95;1.90;;;;;;;;;;5074382;28;20032;-77
2022/10/09 00:03:09;;;;;;;4.22;2.17;;;;;;;;;;5070481;28;20568;-77
2022/10/09 00:05:35;;;;;;;5.07;2.10;;;;;;;;;;5052548;28;20032;-77
2022/10/09 00:08:01;;;;;;;4.50;2.38;;;;;;;;;;5063491;28;20044;-77
2022/10/09 00:10:27;;;;;;;6.80;2.45;;;;;;;;;;5067179;28;20050;-76
2022/10/09 00:12:53;;;;;;;12.70;3.13;;;;;;;;;;5065688;28;20680;-77
2022/10/09 00:15:19;;;;;;;4.10;2.05;;;;;;;;;;5053601;28;20032;-76
2022/10/09 00:17:46;;;;;;;3.72;2.25;;;;;;;;;;5081367;28;20037;-76
2022/10/09 00:20:12;;;;;;;5.35;2.00;;;;;;;;;;5070053;28;20505;-76
2022/10/09 00:22:38;;;;;;;6.45;2.88;;;;;;;;;;5063920;28;20056;-76
2022/10/09 00:25:04;;;;;;;2.65;1.88;;;;;;;;;;5042699;28;20031;-77
2022/10/09 00:27:31;;;;;;;6.22;2.17;;;;;;;;;;5050008;28;20040;-77
2022/10/09 00:29:57;;;;;;;4.97;2.03;;;;;;;;;;5041481;28;21764;-76
2022/10/09 00:32:23;;;;;;;3.33;1.90;;;;;;;;;;5048037;28;20029;-77
2022/10/09 00:34:50;;;;;;;7.72;1.88;;;;;;;;;;5048240;28;20075;-77
2022/10/09 00:37:16;;;;;;;8.25;2.00;;;;;;;;;;5052013;28;20448;-76
2022/10/09 00:39:42;;;;;;;4.72;1.80;;;;;;;;;;5048238;28;20029;-76
2022/10/09 00:42:10;;;;;;;3.90;1.90;;;;;;;;;;5042479;28;20033;-76
2022/10/09 00:44:47;;;;;;;2.97;2.45;;;;;;;;;;5047179;28;20060;-76
2022/10/09 00:47:17;;;;;;;5.78;3.33;;;;;;;;;;5048345;28;20029;-75
2022/10/09 00:49:43;;;;;;;4.00;1.70;;;;;;;;;;5055819;28;20021;-76
2022/10/09 00:52:09;;;;;;;5.65;2.03;;;;;;;;;;5047593;28;20021;-76
2022/10/09 00:54:36;;;;;;;4.25;1.83;;;;;;;;;;5054506;28;20044;-77
2022/10/09 00:57:03;;;;;;;4.63;1.75;;;;;;;;;;5046873;28;20083;-77
2022/10/09 00:59:29;;;;;;;7.57;2.55;;;;;;;;;;5050478;28;20481;-77
2022/10/09 01:01:55;;;;;;;4.95;1.90;;;;;;;;;;5050304;28;20036;-76
2022/10/09 01:04:21;;;;;;;3.83;1.98;;;;;;;;;;5050517;28;20079;-77
2022/10/09 01:06:57;;;;;;;6.40;2.00;;;;;;;;;;5053223;28;20424;-77
2022/10/09 01:09:26;;;;;;;5.85;2.22;;;;;;;;;;5044214;28;20100;-77
2022/10/09 01:11:55;;;;;;;3.22;1.90;;;;;;;;;;5042617;28;20032;-77
2022/10/09 01:14:27;;;;;;;4.53;2.08;;;;;;;;;;5048760;28;20494;-76
2022/10/09 01:17:06;;;;;;;8.10;2.22;;;;;;;;;;5049282;28;20417;-77
2022/10/09 01:19:35;;;;;;;9.30;2.22;;;;;;;;;;5044145;28;20021;-76
2022/10/09 01:22:13;;;;;;;10.30;2.53;;;;;;;;;;5047694;28;20094;-77
2022/10/09 01:24:41;;;;;;;7.25;2.30;;;;;;;;;;5046243;28;20017;-77
2022/10/09 01:27:13;;;;;;;6.03;2.38;;;;;;;;;;5054990;28;20561;-77
2022/10/09 01:29:48;;;;;;;3.38;1.77;;;;;;;;;;5053318;28;20124;-77
2022/10/09 01:32:16;;;;;;;3.55;1.88;;;;;;;;;;5048197;28;20424;-76
2022/10/09 01:34:44;;;;;;;7.75;2.05;;;;;;;;;;5049022;28;20090;-77
2022/10/09 01:37:12;;;;;;;2.70;1.75;;;;;;;;;;5046570;28;20116;-76
2022/10/09 01:39:39;;;;;;;6.10;2.00;;;;;;;;;;5049056;28;20037;-77
2022/10/09 01:42:05;;;;;;;3.08;2.60;;;;;;;;;;5048519;28;20102;-76
2022/10/09 01:44:32;;;;;;;6.18;1.90;;;;;;;;;;5049081;28;20036;-76
2022/10/09 01:46:59;;;;;;;6.75;1.65;;;;;;;;;;5053408;28;20028;-77
2022/10/09 01:49:43;;;;;;;8.38;2.38;;;;;;;;;;5050898;28;20021;-76
2022/10/09 01:52:28;;;;;;;3.23;2.10;;;;;;;;;;5041293;28;20041;-76
2022/10/09 01:55:13;;;;;;;7.70;2.70;;;;;;;;;;5055194;28;20131;-77
2022/10/09 01:58:12;;;;;;;4.95;1.83;;;;;;;;;;5041566;28;20339;-77
2022/10/09 02:00:40;;;;;;;7.80;2.20;;;;;;;;;;5019974;28;20037;-77
2022/10/09 02:03:09;;;;;;;3.75;2.17;;;;;;;;;;5043372;28;20044;-76
2022/10/09 02:05:36;;;;;;;5.25;1.70;;;;;;;;;;5044164;28;20116;-77
2022/10/09 02:08:02;;;;;;;6.55;2.38;;;;;;;;;;5040112;28;20078;-77
2022/10/09 02:10:29;;;;;;;3.03;1.90;;;;;;;;;;5047238;28;20724;-77
2022/10/09 02:12:59;;;;;;;6.82;2.35;;;;;;;;;;5049223;28;20060;-76
2022/10/09 02:15:36;;;;;;;6.57;2.90;;;;;;;;;;5044695;28;20053;-77
2022/10/09 02:18:09;;;;;;;9.82;2.13;;;;;;;;;;5048986;28;20033;-77
2022/10/09 02:20:36;;;;;;;5.70;2.13;;;;;;;;;;5052446;28;20049;-77
2022/10/09 02:23:05;;;;;;;4.38;2.10;;;;;;;;;;5060479;28;20067;-77
2022/10/09 02:25:32;;;;;;;4.32;1.92;;;;;;;;;;5064963;28;20032;-77
2022/10/09 02:28:00;;;;;;;8.00;1.98;;;;;;;;;;5049190;28;20085;-76
2022/10/09 02:30:29;;;;;;;5.10;2.17;;;;;;;;;;5054691;28;20024;-77
2022/10/09 02:32:55;;;;;;;4.80;2.22;;;;;;;;;;5063892;28;20036;-76
2022/10/09 02:35:21;;;;;;;4.13;1.83;;;;;;;;;;5048538;28;20033;-77
2022/10/09 02:37:48;;;;;;;6.93;2.22;;;;;;;;;;5056279;28;20031;-76
2022/10/09 02:40:14;;;;;;;5.97;2.28;;;;;;;;;;5066333;28;20033;-77
2022/10/09 02:42:40;;;;;;;9.00;2.97;;;;;;;;;;5065884;28;20029;-76
2022/10/09 02:45:07;;;;;;;4.50;2.20;;;;;;;;;;5061903;28;20497;-77
2022/10/09 02:47:33;;;;;;;3.90;1.65;;;;;;;;;;5060772;28;20090;-77
2022/10/09 02:49:59;;;;;;;8.20;2.20;;;;;;;;;;5058701;28;20032;-77
2022/10/09 02:52:25;;;;;;;5.00;1.95;;;;;;;;;;5063818;28;20230;-77
2022/10/09 02:54:52;;;;;;;5.40;2.55;;;;;;;;;;5058884;28;20572;-77
2022/10/09 02:57:18;;;;;;;9.57;2.05;;;;;;;;;;5068360;28;20407;-77
2022/10/09 02:59:44;;;;;;;5.10;2.38;;;;;;;;;;5066998;28;20063;-77
2022/10/09 03:02:10;;;;;;;3.25;1.90;;;;;;;;;;5049561;28;20036;-77
2022/10/09 03:04:36;;;;;;;4.13;2.28;;;;;;;;;;5068427;28;20093;-76
2022/10/09 03:07:02;;;;;;;8.20;2.50;;;;;;;;;;5077059;28;20671;-77
2022/10/09 03:09:28;;;;;;;4.90;2.42;;;;;;;;;;5058962;28;20020;-77
2022/10/09 03:11:54;;;;;;;3.45;1.95;;;;;;;;;;5070688;28;20020;-77
2022/10/09 03:14:20;;;;;;;4.40;2.30;;;;;;;;;;5053164;28;20040;-77
2022/10/09 03:16:47;;;;;;;5.40;1.90;;;;;;;;;;5066403;28;20036;-77
2022/10/09 03:19:13;;;;;;;2.08;1.50;;;;;;;;;;5066746;28;20366;-77
2022/10/09 03:21:39;;;;;;;3.05;1.77;;;;;;;;;;5066013;28;20057;-77
2022/10/09 03:24:05;;;;;;;5.53;1.88;;;;;;;;;;5074012;28;20079;-76
2022/10/09 03:26:31;;;;;;;4.53;1.95;;;;;;;;;;5068381;28;20079;-77
2022/10/09 03:28:57;;;;;;;3.50;1.70;;;;;;;;;;5047943;28;20735;-77
2022/10/09 03:31:25;;;;;;;3.08;1.60;;;;;;;;;;5067076;28;20021;-76
2022/10/09 03:33:52;;;;;;;2.38;1.50;;;;;;;;;;5070786;28;20076;-76
2022/10/09 03:36:19;;;;;;;5.07;1.52;;;;;;;;;;5050719;28;20025;-77
2022/10/09 03:38:45;;;;;;;3.63;1.67;;;;;;;;;;5068618;28;20021;-77
2022/10/09 03:41:11;;;;;;;2.92;1.65;;;;;;;;;;5086524;28;20093;-76
2022/10/09 03:43:37;;;;;;;4.00;1.80;;;;;;;;;;5072582;28;20032;-76
2022/10/09 03:46:04;;;;;;;2.65;1.42;;;;;;;;;;5048848;28;20021;-77
2022/10/09 03:48:30;;;;;;;2.00;1.88;;;;;;;;;;5063019;28;20115;-76
2022/10/09 03:50:56;;;;;;;2.47;2.00;;;;;;;;;;5067374;28;20492;-76
2022/10/09 03:53:22;;;;;;;6.18;2.00;;;;;;;;;;5074583;28;20074;-77
2022/10/09 03:55:48;;;;;;;3.50;1.65;;;;;;;;;;5056924;28;20373;-76
2022/10/09 03:58:15;;;;;;;2.92;1.45;;;;;;;;;;5054961;28;20029;-76
2022/10/09 04:00:44;;;;;;;4.80;2.08;;;;;;;;;;5073700;28;20036;-76
2022/10/09 04:03:10;;;;;;;3.20;1.80;;;;;;;;;;5072029;28;20029;-75
2022/10/09 04:05:36;;;;;;;4.13;1.65;;;;;;;;;;5074330;28;20036;-76
2022/10/09 04:08:02;;;;;;;2.03;1.45;;;;;;;;;;5073439;28;20028;-76
2022/10/09 04:10:28;;;;;;;2.35;1.92;;;;;;;;;;5068720;28;20073;-76
2022/10/09 04:12:54;;;;;;;5.05;1.70;;;;;;;;;;5065710;28;20435;-77
2022/10/09 04:15:20;;;;;;;2.88;1.88;;;;;;;;;;5055106;28;20914;-76
2022/10/09 04:17:46;;;;;;;3.67;1.58;;;;;;;;;;5064989;28;20033;-77
2022/10/09 04:20:13;;;;;;;2.03;1.50;;;;;;;;;;5066120;28;20408;-76
2022/10/09 04:22:39;;;;;;;1.50;1.40;;;;;;;;;;5088317;28;20044;-76
2022/10/09 04:25:05;;;;;;;4.07;1.83;;;;;;;;;;5049835;28;20413;-77
2022/10/09 04:27:31;;;;;;;4.43;1.88;;;;;;;;;;5070075;28;20137;-76
2022/10/09 04:29:57;;;;;;;5.15;1.95;;;;;;;;;;5068074;28;20687;-77
2022/10/09 04:32:23;;;;;;;5.65;2.05;;;;;;;;;;5070340;28;20055;-76
2022/10/09 04:34:50;;;;;;;4.45;2.28;;;;;;;;;;5069712;28;20020;-76
2022/10/09 04:37:16;;;;;;;4.75;2.15;;;;;;;;;;5071941;28;20028;-77
2022/10/09 04:39:42;;;;;;;3.05;1.60;;;;;;;;;;5053533;28;20098;-77
2022/10/09 04:42:08;;;;;;;8.65;2.25;;;;;;;;;;5067901;28;20036;-76
2022/10/09 04:44:34;;;;;;;5.63;2.10;;;;;;;;;;5064417;28;20032;-76
2022/10/09 04:47:00;;;;;;;3.40;2.20;;;;;;;;;;5054410;28;20123;-77
2022/10/09 04:49:26;;;;;;;3.47;1.90;;;;;;;;;;5049709;28;20017;-77
2022/10/09 04:51:52;;;;;;;7.15;2.50;;;;;;;;;;5070390;28;20055;-77
2022/10/09 04:54:18;;;;;;;9.65;2.50;;;;;;;;;;5066020;28;20028;-77
2022/10/09 04:56:44;;;;;;;7.88;2.13;;;;;;;;;;5067339;28;20454;-77
2022/10/09 04:59:11;;;;;;;8.43;2.58;;;;;;;;;;5072747;28;20100;-77
2022/10/09 05:01:37;;;;;;;3.60;1.90;;;;;;;;;;5066632;28;20733;-76
2022/10/09 05:04:03;;;;;;;8.52;2.17;;;;;;;;;;5057164;28;21153;-77
2022/10/09 05:06:29;;;;;;;5.38;2.13;;;;;;;;;;5068533;28;20028;-77
2022/10/09 05:08:55;;;;;;;6.60;2.35;;;;;;;;;;5054494;28;20036;-77
2022/10/09 05:11:23;;;;;;;4.00;2.03;;;;;;;;;;5072570;28;20032;-77
2022/10/09 05:13:50;;;;;;;4.32;1.75;;;;;;;;;;5053432;28;20030;-77
2022/10/09 05:16:18;;;;;;;8.73;2.42;;;;;;;;;;5078609;28;20029;-76
2022/10/09 05:18:45;;;;;;;5.28;1.92;;;;;;;;;;5068073;28;20032;-77
2022/10/09 05:21:11;;;;;;;7.85;3.35;;;;;;;;;;5082323;28;20098;-77
2022/10/09 05:23:37;;;;;;;3.70;1.88;;;;;;;;;;5050743;28;20036;-77
2022/10/09 05:26:14;;;;;;;6.05;2.60;;;;;;;;;;5051299;28;20474;-77
2022/10/09 05:28:41;;;;;;;5.32;2.10;;;;;;;;;;5067599;28;20024;-77
2022/10/09 05:31:07;;;;;;;5.18;2.10;;;;;;;;;;5069370;28;20031;-76
2022/10/09 05:33:34;;;;;;;7.95;2.65;;;;;;;;;;5064208;28;20571;-76
2022/10/09 05:36:01;;;;;;;7.10;2.67;;;;;;;;;;5065544;28;20028;-77
2022/10/09 05:38:28;;;;;;;2.38;1.70;;;;;;;;;;5072136;28;20036;-77
2022/10/09 05:40:55;;;;;;;8.48;2.13;;;;;;;;;;5064462;28;20032;-76
2022/10/09 05:43:25;;;;;;;12.95;3.35;;;;;;;;;;5065583;28;20044;-77
2022/10/09 05:45:51;;;;;;;6.03;2.17;;;;;;;;;;5063534;28;20020;-77
2022/10/09 05:48:17;;;;;;;8.20;2.22;;;;;;;;;;5076100;28;20512;-76
2022/10/09 05:50:43;;;;;;;7.72;2.35;;;;;;;;;;5066159;28;20025;-77
2022/10/09 05:53:10;;;;;;;7.50;2.30;;;;;;;;;;5059026;28;20020;-77
2022/10/09 05:55:36;;;;;;;4.03;2.42;;;;;;;;;;5066387;28;20028;-76
2022/10/09 05:58:02;;;;;;;6.57;1.75;;;;;;;;;;5046153;28;20120;-77
2022/10/09 06:00:28;;;;;;;6.13;2.33;;;;;;;;;;5053091;28;20034;-76
2022/10/09 06:02:54;;;;;;;7.32;2.70;;;;;;;;;;5054074;28;20102;-76
2022/10/09 06:05:20;;;;;;;6.30;2.13;;;;;;;;;;5052333;28;20036;-77
2022/10/09 06:07:47;;;;;;;6.75;2.33;;;;;;;;;;5067942;28;20131;-77
2022/10/09 06:10:13;;;;;;;5.10;2.33;;;;;;;;;;5055837;28;20032;-76
2022/10/09 06:12:39;;;;;;;8.30;2.47;;;;;;;;;;5049629;28;20025;-77
2022/10/09 06:15:06;;;;;;;14.57;3.20;;;;;;;;;;5066829;28;20075;-76
2022/10/09 06:17:32;;;;;;;9.82;2.55;;;;;;;;;;5068226;28;20135;-76
2022/10/09 06:19:58;;;;;;;7.95;2.67;;;;;;;;;;5065104;28;20036;-77
2022/10/09 06:22:25;;;;;;;8.50;2.25;;;;;;;;;;5050770;28;20139;-76
2022/10/09 06:24:51;;;;;;;7.30;2.40;;;;;;;;;;5065742;28;20124;-77
2022/10/09 06:27:17;;;;;;;8.68;2.58;;;;;;;;;;5055727;28;20560;-77
2022/10/09 06:29:44;;;;;;;5.22;2.10;;;;;;;;;;5057337;28;20107;-78
2022/10/09 06:32:10;;;;;;;7.40;3.03;;;;;;;;;;5058882;28;20444;-77
2022/10/09 06:34:36;;;;;;;6.43;2.60;;;;;;;;;;5067793;28;20025;-77
2022/10/09 06:37:02;;;;;;;10.07;2.85;;;;;;;;;;5070798;28;20016;-78
2022/10/09 06:39:28;;;;;;;6.93;2.33;;;;;;;;;;5061564;28;20384;-77
2022/10/09 06:41:54;;;;;;;9.75;2.47;;;;;;;;;;5070567;28;20020;-76
2022/10/09 06:44:20;;;;;;;7.07;2.35;;;;;;;;;;5052765;28;20029;-77
2022/10/09 06:46:48;;;;;;;8.60;2.75;;;;;;;;;;5077662;28;20024;-77
2022/10/09 06:49:14;;;;;;;7.28;2.45;;;;;;;;;;5072711;28;20825;-77
2022/10/09 06:51:40;;;;;;;9.35;2.30;;;;;;;;;;5068463;28;20048;-78
2022/10/09 06:54:11;;;;;;;5.03;2.40;;;;;;;;;;5057352;28;20619;-78
2022/10/09 06:56:37;;;;;;;12.85;3.30;;;;;;;;;;5063586;28;20032;-77
2022/10/09 06:59:04;;;;;;;9.50;2.70;;;;;;;;;;5069476;28;20051;-76
2022/10/09 07:01:31;;;;;;;8.05;2.22;;;;;;;;;;5050899;28;20024;-76
2022/10/09 07:03:58;;;;;;;5.05;2.20;;;;;;;;;;5055952;28;20079;-76
2022/10/09 07:06:25;;;;;;;10.05;2.47;;;;;;;;;;5058058;28;20028;-78
2022/10/09 07:08:54;;;;;;;5.07;2.00;;;;;;;;;;5061156;28;20114;-78
2022/10/09 07:11:22;;;;;;;8.82;2.35;;;;;;;;;;5058630;28;20477;-77
2022/10/09 07:13:50;;;;;;;8.45;2.15;;;;;;;;;;5059059;28;20028;-77
2022/10/09 07:16:21;;;;;;;5.35;2.30;;;;;;;;;;5055694;28;20086;-77
2022/10/09 07:18:47;;;;;;;5.75;2.00;;;;;;;;;;5056421;28;20048;-78
2022/10/09 07:21:14;;;;;;;7.78;2.30;;;;;;;;;;5057674;28;20186;-77
2022/10/09 07:23:40;;;;;;;5.78;2.13;;;;;;;;;;5079482;28;20031;-78
2022/10/09 07:26:11;;;;;;;5.38;2.42;;;;;;;;;;5051053;28;20036;-78
2022/10/09 07:28:37;;;;;;;7.18;2.50;;;;;;;;;;5070317;28;20266;-78
2022/10/09 07:31:04;;;;;;;14.05;2.42;;;;;;;;;;5071037;28;20488;-79
2022/10/09 07:33:30;;;;;;;9.98;2.60;;;;;;;;;;5056272;28;20119;-78
2022/10/09 07:35:57;;;;;;;8.75;2.88;;;;;;;;;;5076417;28;20052;-78
2022/10/09 07:38:23;;;;;;;4.97;2.42;;;;;;;;;;5074381;28;20033;-78
2022/10/09 07:40:50;;;;;;;6.68;2.80;;;;;;;;;;5072004;28;20112;-77
2022/10/09 07:43:16;;;;;;;9.57;3.00;;;;;;;;;;5072994;28;20036;-78
2022/10/09 07:45:43;;;;;;;8.48;2.97;;;;;;;;;;5072327;28;20489;-78
2022/10/09 07:48:09;;;;;;;10.82;2.35;;;;;;;;;;5056950;28;20037;-78
2022/10/09 07:50:35;;;;;;;7.03;2.58;;;;;;;;;;5053438;28;20029;-77
2022/10/09 07:53:01;;;;;;;9.55;2.42;;;;;;;;;;5072513;28;20044;-78
2022/10/09 07:55:27;;;;;;;8.35;2.20;;;;;;;;;;5052091;28;20024;-78
2022/10/09 07:57:54;;;;;;;9.98;2.45;;;;;;;;;;5069518;28;20078;-77
2022/10/09 08:00:20;;;;;;;5.03;2.30;;;;;;;;;;5072511;28;20027;-77
2022/10/09 08:02:46;;;;;;;6.65;2.53;;;;;;;;;;5070602;28;20032;-78
2022/10/09 08:05:12;;;;;;;4.85;2.03;;;;;;;;;;5049521;28;20033;-77
2022/10/09 08:07:38;;;;;;;4.68;2.08;;;;;;;;;;5068531;28;20494;-77
2022/10/09 08:10:05;;;;;;;5.65;2.33;;;;;;;;;;5054752;28;20020;-78
2022/10/09 08:12:31;;;;;;;6.05;2.10;;;;;;;;;;5067183;28;20035;-78
2022/10/09 08:14:57;;;;;;;5.50;2.15;;;;;;;;;;5071703;28;20036;-78
2022/10/09 08:17:23;;;;;;;11.10;3.75;;;;;;;;;;5055205;28;20607;-79
2022/10/09 08:19:49;;;;;;;9.35;2.45;;;;;;;;;;5056100;28;20028;-77
2022/10/09 08:22:15;;;;;;;4.82;2.20;;;;;;;;;;5074208;28;20057;-78
2022/10/09 08:24:41;;;;;;;7.97;1.95;;;;;;;;;;5067467;28;20029;-78
2022/10/09 08:27:08;;;;;;;5.90;2.35;;;;;;;;;;5082733;28;20083;-79
2022/10/09 08:29:34;;;;;;;6.32;2.40;;;;;;;;;;5053450;28;20102;-78
2022/10/09 08:32:00;;;;;;;6.35;2.45;;;;;;;;;;5067680;28;20498;-77
2022/10/09 08:34:26;;;;;;;6.68;2.25;;;;;;;;;;5057126;28;20056;-77
2022/10/09 08:36:53;;;;;;;9.45;2.75;;;;;;;;;;5071584;28;20477;-78
2022/10/09 08:39:19;;;;;;;6.47;2.22;;;;;;;;;;5048150;28;20029;-77
2022/10/09 08:41:50;;;;;;;7.53;2.33;;;;;;;;;;5067152;28;20078;-78
2022/10/09 08:44:17;;;;;;;4.82;2.08;;;;;;;;;;5051360;28;20025;-77
2022/10/09 08:46:43;;;;;;;5.80;2.63;;;;;;;;;;5068392;28;20025;-77
2022/10/09 08:49:20;;;;;;;6.70;2.65;;;;;;;;;;5052691;28;20090;-77
2022/10/09 08:51:46;;;;;;;8.73;2.65;;;;;;;;;;5050073;28;20032;-77
2022/10/09 08:54:26;;;;;;;6.22;2.58;;;;;;;;;;5063598;28;20539;-79
2022/10/09 08:56:52;;;;;;;7.43;2.50;;;;;;;;;;5071054;28;20070;-78
2022/10/09 08:59:19;;;;;;;8.52;3.22;;;;;;;;;;5062018;28;20389;-78
2022/10/09 09:01:49;;;;;;;9.43;2.20;;;;;;;;;;5061755;28;20070;-78
2022/10/09 09:04:18;;;;;;;6.70;3.03;;;;;;;;;;5068100;28;20032;-77
2022/10/09 09:06:52;;;;;;;5.25;3.17;;;;;;;;;;5048578;28;20386;-77
2022/10/09 09:09:30;;;;;;;8.85;2.50;;;;;;;;;;5069293;28;20033;-77
2022/10/09 09:12:15;;;;;;;10.65;2.88;;;;;;;;;;5048275;28;20033;-78
2022/10/09 09:14:50;;;;;;;7.05;2.40;;;;;;;;;;5068785;28;20112;-77
2022/10/09 09:17:33;;;;;;;15.13;2.78;;;;;;;;;;5054864;28;20096;-78
2022/10/09 09:20:15;;;;;;;6.53;2.50;;;;;;;;;;5068576;28;20036;-77
2022/10/09 09:22:47;;;;;;;8.55;2.47;;;;;;;;;;5065172;28;20052;-77
2022/10/09 09:25:19;;;;;;;10.27;3.38;;;;;;;;;;5066857;28;20762;-77
2022/10/09 09:27:45;;;;;;;4.72;2.85;;;;;;;;;;5069197;28;20035;-77
2022/10/09 09:30:11;;;;;;;10.13;3.17;;;;;;;;;;5043879;28;20058;-77
2022/10/09 09:32:41;;;;;;;10.75;2.63;;;;;;;;;;5064938;28;20417;-79
2022/10/09 09:35:16;;;;;;;6.57;2.30;;;;;;;;;;5065871;28;20025;-80
2022/10/09 09:37:42;;;;;;;7.55;3.45;;;;;;;;;;5067405;28;20040;-77
2022/10/09 09:40:14;;;;;;;8.00;2.95;;;;;;;;;;5069393;28;20094;-80
2022/10/09 09:42:40;;;;;;;6.53;2.55;;;;;;;;;;5067885;28;20032;-77
2022/10/09 09:45:10;;;;;;;5.15;3.00;;;;;;;;;;5067755;28;20036;-78
2022/10/09 09:47:39;;;;;;;8.15;2.80;;;;;;;;;;5048618;28;20020;-77
2022/10/09 09:50:06;;;;;;;8.23;3.75;;;;;;;;;;5068895;28;20172;-78
2022/10/09 09:52:39;;;;;;;5.80;2.53;;;;;;;;;;5045740;28;20029;-76
2022/10/09 09:55:22;;;;;;;6.78;2.80;;;;;;;;;;5046868;28;20025;-79
2022/10/09 09:57:48;;;;;;;11.63;3.08;;;;;;;;;;5071382;28;20029;-77
2022/10/09 10:00:19;;;;;;;5.55;3.67;;;;;;;;;;5046340;28;20041;-77
2022/10/09 10:02:45;;;;;;;9.00;4.20;;;;;;;;;;5047438;28;20531;-78
2022/10/09 10:05:16;;;;;;;11.18;4.03;;;;;;;;;;5048602;28;20066;-78
2022/10/09 10:07:43;;;;;;;7.53;3.03;;;;;;;;;;5048040;28;20135;-77
2022/10/09 10:10:09;;;;;;;11.77;5.03;;;;;;;;;;5063425;28;20761;-77
2022/10/09 10:13:01;;;;;;;13.55;4.93;;;;;;;;;;5059525;28;20035;-77
2022/10/09 10:15:28;;;;;;;10.95;4.70;;;;;;;;;;5042485;28;20059;-76
2022/10/09 10:18:01;;;;;;;8.48;3.40;;;;;;;;;;5060894;28;20039;-78
2022/10/09 10:20:28;;;;;;;11.98;4.20;;;;;;;;;;5045728;28;20117;-77
2022/10/09 10:22:55;;;;;;;7.28;3.00;;;;;;;;;;5063644;28;20056;-77
2022/10/09 10:25:23;;;;;;;6.57;2.67;;;;;;;;;;5067968;28;20480;-78
2022/10/09 10:27:51;;;;;;;8.68;2.88;;;;;;;;;;5060128;28;20078;-77
2022/10/09 10:30:18;;;;;;;10.52;3.25;;;;;;;;;;5044744;28;20029;-79
2022/10/09 10:32:45;;;;;;;10.95;3.05;;;;;;;;;;5042750;28;20575;-78
2022/10/09 10:35:13;;;;;;;5.38;2.78;;;;;;;;;;5064985;28;20020;-79
2022/10/09 10:37:47;;;;;;;4.80;2.33;;;;;;;;;;5047926;28;20054;-78
2022/10/09 10:40:20;;;;;;;5.30;3.38;;;;;;;;;;5048048;28;20063;-78
2022/10/09 10:42:55;;;;;;;9.57;3.05;;;;;;;;;;5046886;28;20123;-77
2022/10/09 10:45:21;;;;;;;;;;;;;;;;;;5044252;28;20039;-77
2022/10/09 10:47:52;;;;;;;6.85;2.33;;;;;;;;;;5066159;28;20020;-77
2022/10/09 10:50:19;;;;;;;6.43;2.60;;;;;;;;;;5046108;28;20039;-77
2022/10/09 10:52:53;;;;;;;5.03;2.13;;;;;;;;;;5049670;28;20516;-77
2022/10/09 10:55:25;;;;;;;7.40;3.58;;;;;;;;;;5064121;28;20657;-77
2022/10/09 10:57:51;;;;;;;7.68;2.97;;;;;;;;;;5059565;28;20048;-78
2022/10/09 11:00:18;;;;;;;9.63;2.35;;;;;;;;;;5046128;28;20869;-81
2022/10/09 11:03:03;;;;;;;10.68;3.65;;;;;;;;;;5076297;28;20497;-78
2022/10/09 11:05:48;;;;;;;7.63;2.40;;;;;;;;;;5061889;28;20033;-78
2022/10/09 11:08:14;;;;;;;7.10;2.42;;;;;;;;;;5059931;28;20041;-77
2022/10/09 11:10:43;;;;;;;6.18;2.70;;;;;;;;;;5046950;28;20032;-77
2022/10/09 11:13:18;;;;;;;4.30;2.20;;;;;;;;;;5060841;28;20525;-76
2022/10/09 11:15:53;;;;;;;6.78;2.75;;;;;;;;;;5064613;28;20428;-77
2022/10/09 11:18:20;;;;;;;;;;;;;;;;;;5050013;28;20042;-77
2022/10/09 11:20:49;;;;;;;8.98;3.92;;;;;;;;;;5065089;28;19912;-79
2022/10/09 11:23:24;;;;;;;10.98;3.28;;;;;;;;;;5063367;28;20053;-76
2022/10/09 11:25:50;;;;;;;;;;;;;;;;;;5048602;28;20036;-76
2022/10/09 11:28:22;;;;;;;4.78;2.72;;;;;;;;;;5064814;28;19924;-76
2022/10/09 11:30:48;;;;;;;8.38;3.30;;;;;;;;;;5065755;28;20902;-76
2022/10/09 11:33:27;;;;;;;6.85;2.72;;;;;;;;;;5048093;28;20020;-76
2022/10/09 11:35:58;;;;;;;5.97;2.63;;;;;;;;;;5062601;28;20103;-76
2022/10/09 11:38:24;;;;;;;7.10;2.85;;;;;;;;;;5065827;28;20028;-75
2022/10/09 11:40:51;;;;;;;6.00;2.45;;;;;;;;;;5065122;28;20430;-77
2022/10/09 11:43:32;;;;;;;5.75;2.45;;;;;;;;;;5064840;28;20029;-75
2022/10/09 11:45:58;;;;;;;5.28;3.00;;;;;;;;;;5079713;28;20043;-77
2022/10/09 11:48:44;;;;;;;8.13;3.80;;;;;;;;;;5062906;28;20112;-76
2022/10/09 11:51:19;;;;;;;8.68;3.22;;;;;;;;;;5049877;28;20020;-76
2022/10/09 11:53:46;;;;;;;6.85;3.50;;;;;;;;;;5049551;28;20494;-76
2022/10/09 11:56:28;;;;;;;8.45;3.20;;;;;;;;;;5062154;28;20029;-77
2022/10/09 11:58:58;;;;;;;9.10;3.65;;;;;;;;;;5064045;28;20397;-77
2022/10/09 12:01:46;;;;;;;7.90;3.10;;;;;;;;;;5063510;28;20029;-75
2022/10/09 12:04:12;;;;;;;7.13;2.60;;;;;;;;;;5045175;28;20016;-76
2022/10/09 12:06:56;;;;;;;6.97;3.10;;;;;;;;;;5047047;28;20509;-76
2022/10/09 12:09:22;;;;;;;4.43;2.83;;;;;;;;;;5048062;28;20033;-76
2022/10/09 12:12:00;;;;;;;3.75;2.42;;;;;;;;;;5066532;28;20032;-76
2022/10/09 12:14:28;;;;;;;6.75;3.10;;;;;;;;;;5061765;28;20016;-76
2022/10/09 12:16:55;;;;;;;5.22;3.13;;;;;;;;;;5047305;28;20027;-76
2022/10/09 12:19:30;;;;;;;8.82;3.15;;;;;;;;;;5045715;28;20523;-76
2022/10/09 12:21:56;;;;;;;4.07;2.90;;;;;;;;;;5058371;28;20036;-77
2022/10/09 12:24:23;;;;;;;6.43;3.40;;;;;;;;;;5043191;28;20036;-77
2022/10/09 12:26:50;;;;;;;9.80;2.85;;;;;;;;;;5044639;28;20068;-80
2022/10/09 12:29:24;;;;;;;4.68;2.83;;;;;;;;;;5045464;28;20260;-79
2022/10/09 12:31:50;;;;;;;8.88;3.30;;;;;;;;;;5042330;28;20025;-76
2022/10/09 12:34:23;;;;;;;7.32;2.78;;;;;;;;;;5046348;28;20029;-76
2022/10/09 12:36:49;;;;;;;5.43;3.20;;;;;;;;;;5045514;28;20150;-76
2022/10/09 12:39:19;;;;;;;9.38;4.15;;;;;;;;;;5043656;28;20029;-77
2022/10/09 12:41:47;;;;;;;8.98;3.20;;;;;;;;;;5044863;28;20093;-77
2022/10/09 12:44:17;;;;;;;10.52;3.17;;;;;;;;;;5043194;28;20509;-76
2022/10/09 12:46:44;;;;;;;10.25;3.85;;;;;;;;;;5048996;28;20509;-75
2022/10/09 12:49:19;;;;;;;9.32;3.60;;;;;;;;;;5042384;28;20052;-76
2022/10/09 12:51:50;;;;;;;11.15;3.63;;;;;;;;;;5044523;28;20032;-78
2022/10/09 12:54:16;;;;;;;6.32;2.90;;;;;;;;;;5041407;28;20096;-77
2022/10/09 12:56:42;;;;;;;8.95;2.67;;;;;;;;;;5043914;28;20028;-76
2022/10/09 12:59:09;;;;;;;9.90;3.00;;;;;;;;;;5043597;28;20030;-77
2022/10/09 13:01:36;;;;;;;8.88;3.40;;;;;;;;;;5043785;28;20122;-75
2022/10/09 13:04:03;;;;;;;5.88;2.85;;;;;;;;;;5043947;28;20112;-75
2022/10/09 13:06:35;;;;;;;8.57;2.90;;;;;;;;;;5045862;28;20064;-76
2022/10/09 13:09:06;;;;;;;9.93;3.47;;;;;;;;;;5047374;28;20327;-75
2022/10/09 13:11:34;;;;;;;12.05;3.58;;;;;;;;;;5042252;28;20061;-77
2022/10/09 13:14:01;;;;;;;7.65;3.17;;;;;;;;;;5040884;28;20478;-76
2022/10/09 13:16:37;;;;;;;8.85;4.22;;;;;;;;;;5040133;28;20096;-77
2022/10/09 13:19:17;;;;;;;7.88;2.80;;;;;;;;;;5043576;28;20037;-78
2022/10/09 13:21:43;;;;;;;5.88;2.45;;;;;;;;;;5036779;28;20041;-78
2022/10/09 13:24:10;;;;;;;8.23;3.20;;;;;;;;;;5047393;28;20029;-78
2022/10/09 13:26:37;;;;;;;10.90;3.20;;;;;;;;;;5041397;28;20086;-76
2022/10/09 13:29:05;;;;;;;9.63;4.22;;;;;;;;;;5046866;28;20098;-79
2022/10/09 13:31:42;;;;;;;7.03;2.95;;;;;;;;;;5054865;28;20025;-79
2022/10/09 13:34:12;;;;;;;11.10;3.55;;;;;;;;;;5043675;28;20059;-75
2022/10/09 13:36:38;;;;;;;9.02;3.67;;;;;;;;;;5038798;28;20029;-75
2022/10/09 13:39:04;;;;;;;10.38;3.53;;;;;;;;;;5041518;28;20516;-75
2022/10/09 13:41:31;;;;;;;10.23;3.97;;;;;;;;;;5043561;28;20029;-75
2022/10/09 13:43:57;;;;;;;12.63;4.18;;;;;;;;;;5042523;28;20092;-79
2022/10/09 13:46:23;;;;;;;7.72;3.65;;;;;;;;;;5043824;28;20029;-75
2022/10/09 13:48:49;;;;;;;8.75;4.50;;;;;;;;;;5043465;28;20028;-75
2022/10/09 13:51:15;;;;;;;8.45;3.45;;;;;;;;;;5044184;28;20466;-75
2022/10/09 13:53:41;;;;;;;9.77;3.90;;;;;;;;;;5043383;28;20026;-75
2022/10/09 13:56:08;;;;;;;11.45;3.85;;;;;;;;;;5039874;28;20040;-74
2022/10/09 13:58:35;;;;;;;10.50;3.53;;;;;;;;;;5043097;28;20037;-74
2022/10/09 14:01:01;;;;;;;7.03;3.40;;;;;;;;;;5044232;28;20034;-76
2022/10/09 14:03:27;;;;;;;10.32;4.47;;;;;;;;;;5045072;28;20045;-76
2022/10/09 14:05:58;;;;;;;13.10;4.10;;;;;;;;;;5041788;28;20033;-75
2022/10/09 14:08:24;;;;;;;10.48;4.70;;;;;;;;;;5042812;28;20123;-74
2022/10/09 14:10:50;;;;;;;12.77;4.30;;;;;;;;;;5043258;28;20036;-76
2022/10/09 14:13:18;;;;;;;10.70;3.65;;;;;;;;;;5048737;28;20022;-75
2022/10/09 14:15:44;;;;;;;9.35;4.18;;;;;;;;;;5042783;28;20017;-75
2022/10/09 14:18:10;;;;;;;14.65;4.22;;;;;;;;;;5039659;28;20029;-75
2022/10/09 14:20:36;;;;;;;8.00;3.38;;;;;;;;;;5045736;28;20040;-75
2022/10/09 14:23:02;;;;;;;7.68;3.00;;;;;;;;;;5058979;28;20055;-75
2022/10/09 14:25:28;;;;;;;6.55;3.08;;;;;;;;;;5063304;28;20394;-75
2022/10/09 14:27:55;;;;;;;9.32;3.20;;;;;;;;;;5055921;28;20575;-75
2022/10/09 14:30:21;;;;;;;8.13;2.83;;;;;;;;;;5063394;28;20039;-77
2022/10/09 14:32:47;;;;;;;7.57;2.90;;;;;;;;;;5061301;28;20482;-76
2022/10/09 14:35:13;;;;;;;4.22;3.00;;;;;;;;;;5045930;28;20033;-76
2022/10/09 14:37:39;;;;;;;8.25;2.65;;;;;;;;;;5044783;28;20037;-77
2022/10/09 14:40:05;;;;;;;8.32;3.75;;;;;;;;;;5060919;28;20036;-78
2022/10/09 14:42:36;;;;;;;6.60;3.35;;;;;;;;;;5050359;28;20032;-83
2022/10/09 14:45:02;;;;;;;7.88;3.58;;;;;;;;;;5068475;28;20025;-80
2022/10/09 14:47:29;;;;;;;5.68;2.85;;;;;;;;;;5066017;28;20081;-76
2022/10/09 14:49:55;;;;;;;5.35;2.40;;;;;;;;;;5051508;28;20017;-76